Time;durP1;ratioP1;P1;durP2;ratioP2;P2;SDS_P1;SDS_P2;PMS_P1;PMS_P2;Temp;Humidity;BMP_temperature;BMP_pressure;BME280_temperature;BME280_humidity;BME280_pressure;Samples;Min_cycle;Max_cycle;Signal;HPM_P1;HPM_P2
2023/06/23 00:01:45;;;;;;;5.30;4.00;;;;;;;18.50;100.00;101419.94;5043723;28;20197;-72
2023/06/23 00:04:11;;;;;;;6.40;4.77;;;;;;;18.54;100.00;101424.25;5038842;28;20197;-72
2023/06/23 00:06:36;;;;;;;7.33;4.80;;;;;;;18.52;100.00;101430.31;5052812;28;20218;-72
2023/06/23 00:09:07;;;;;;;7.23;4.80;;;;;;;18.50;100.00;101424.25;5038176;28;20204;-72
2023/06/23 00:11:33;;;;;;;8.87;4.70;;;;;;;18.44;100.00;101424.28;5043709;28;20230;-72
2023/06/23 00:13:58;;;;;;;9.43;5.00;;;;;;;18.35;100.00;101412.22;5035427;28;20309;-72
2023/06/23 00:16:23;;;;;;;5.97;4.60;;;;;;;18.28;100.00;101420.84;5036256;28;20214;-72
2023/06/23 00:18:49;;;;;;;5.93;4.77;;;;;;;18.28;100.00;101426.03;5040467;28;20748;-71
2023/06/23 00:21:14;;;;;;;5.90;4.67;;;;;;;18.30;100.00;101428.63;5038454;28;20536;-72
2023/06/23 00:23:40;;;;;;;5.70;4.13;;;;;;;18.22;100.00;101431.25;5040474;28;20203;-71
2023/06/23 00:26:07;;;;;;;6.47;4.63;;;;;;;18.13;100.00;101427.78;5038026;28;20244;-71
2023/06/23 00:28:33;;;;;;;6.37;4.33;;;;;;;18.11;100.00;101433.00;5036388;28;20204;-71
2023/06/23 00:30:59;;;;;;;5.30;4.70;;;;;;;18.15;100.00;101436.44;5031802;28;20194;-73
2023/06/23 00:33:24;;;;;;;6.33;5.27;;;;;;;18.07;100.00;101438.19;5046352;28;20218;-71
2023/06/23 00:35:50;;;;;;;5.53;4.30;;;;;;;18.06;100.00;101444.25;5058157;28;20218;-71
2023/06/23 00:38:15;;;;;;;6.67;4.20;;;;;;;18.03;100.00;101446.81;5036312;28;20271;-71
2023/06/23 00:40:42;;;;;;;5.30;4.33;;;;;;;17.95;100.00;101449.44;5039030;28;21773;-71
2023/06/23 00:43:08;;;;;;;8.47;5.27;;;;;;;18.03;100.00;101449.41;5038397;28;20193;-71
2023/06/23 00:45:33;;;;;;;4.90;4.37;;;;;;;18.02;100.00;101451.16;5033727;28;20214;-71
2023/06/23 00:48:03;;;;;;;5.77;4.47;;;;;;;18.01;100.00;101448.56;5040847;28;20251;-71
2023/06/23 00:50:30;;;;;;;5.07;4.43;;;;;;;18.02;100.00;101447.69;5052161;28;20735;-71
2023/06/23 00:52:55;;;;;;;6.13;4.40;;;;;;;17.94;100.00;101449.41;5040265;28;20206;-71
2023/06/23 00:55:28;;;;;;;5.63;4.80;;;;;;;17.97;100.00;101452.88;5042796;28;20903;-71
2023/06/23 00:57:55;;;;;;;5.60;4.60;;;;;;;18.00;100.00;101450.28;5041157;28;20198;-71
2023/06/23 01:00:23;;;;;;;5.70;4.87;;;;;;;18.02;100.00;101447.69;5034539;28;20225;-71
2023/06/23 01:02:51;;;;;;;4.60;4.20;;;;;;;17.99;100.00;101451.16;5048509;28;20851;-71
2023/06/23 01:05:19;;;;;;;5.93;4.60;;;;;;;17.94;100.00;101457.19;5042440;28;20785;-71
2023/06/23 01:08:16;;;;;;;6.00;4.73;;;;;;;18.00;100.00;101455.47;5044726;28;20205;-71
2023/06/23 01:11:18;;;;;;;5.00;4.47;;;;;;;17.95;100.00;101453.72;5056623;28;20207;-71
2023/06/23 01:13:52;;;;;;;4.70;4.30;;;;;;;17.85;100.00;101455.50;5043649;28;20666;-71
2023/06/23 01:16:26;;;;;;;4.60;4.20;;;;;;;17.88;100.00;101463.28;5050000;28;20279;-71
2023/06/23 01:19:20;;;;;;;8.00;4.63;;;;;;;17.85;100.00;101454.59;5044497;28;20597;-71
2023/06/23 01:22:02;;;;;;;5.10;4.00;;;;;;;17.86;100.00;101459.78;5037956;28;20210;-71
2023/06/23 01:24:31;;;;;;;6.23;5.07;;;;;;;17.83;100.00;101466.72;5052603;28;20623;-72
2023/06/23 01:27:25;;;;;;;6.07;4.80;;;;;;;17.84;100.00;101466.72;5036287;28;20210;-71
2023/06/23 01:29:53;;;;;;;7.50;5.10;;;;;;;17.82;100.00;101471.03;5045216;28;20305;-71
2023/06/23 01:32:27;;;;;;;5.73;4.87;;;;;;;17.75;100.00;101471.03;5042540;28;20204;-71
2023/06/23 01:34:58;;;;;;;7.70;4.50;;;;;;;17.78;100.00;101473.63;5038972;28;20227;-71
2023/06/23 01:37:29;;;;;;;5.00;4.50;;;;;;;17.73;100.00;101477.94;5045090;28;20204;-72
2023/06/23 01:39:58;;;;;;;7.03;4.87;;;;;;;17.75;100.00;101474.50;5050084;28;20198;-72
2023/06/23 01:42:34;;;;;;;6.23;5.27;;;;;;;17.73;100.00;101475.34;5042014;28;20194;-72
2023/06/23 01:45:03;;;;;;;6.20;4.97;;;;;;;17.71;100.00;101479.66;5041116;28;20220;-72
2023/06/23 01:47:38;;;;;;;5.80;5.20;;;;;;;17.76;100.00;101480.53;5045169;28;20595;-72
2023/06/23 01:50:06;;;;;;;6.40;5.33;;;;;;;17.74;100.00;101482.25;5048507;28;20198;-72
2023/06/23 01:52:34;;;;;;;8.20;6.67;;;;;;;17.68;100.00;101488.28;5027485;28;20224;-71
2023/06/23 01:55:02;;;;;;;8.70;6.23;;;;;;;17.71;100.00;101484.84;5043236;28;20700;-71
2023/06/23 01:57:31;;;;;;;7.93;6.60;;;;;;;17.72;100.00;101482.25;5037633;28;20198;-72
2023/06/23 01:59:58;;;;;;;9.30;6.93;;;;;;;17.71;100.00;101482.25;5043708;28;20189;-72
2023/06/23 02:02:26;;;;;;;9.73;7.60;;;;;;;17.66;100.00;101482.25;5040055;28;20566;-71
2023/06/23 02:04:55;;;;;;;8.77;7.03;;;;;;;17.65;100.00;101483.13;5043628;28;20289;-72
2023/06/23 02:07:22;;;;;;;7.47;6.67;;;;;;;17.59;100.00;101485.69;5038647;28;20197;-72
2023/06/23 02:09:49;;;;;;;7.00;6.27;;;;;;;17.63;100.00;101497.78;5038260;28;20267;-72
2023/06/23 02:12:16;;;;;;;5.80;5.20;;;;;;;17.55;100.00;101493.47;5035441;28;20183;-72
2023/06/23 02:14:44;;;;;;;5.97;5.07;;;;;;;17.48;100.00;101499.50;5052446;28;20896;-72
2023/06/23 02:17:11;;;;;;;4.47;4.00;;;;;;;17.49;100.00;101498.63;5044394;28;20205;-72
2023/06/23 02:19:39;;;;;;;4.97;4.20;;;;;;;17.41;100.00;101498.59;5049845;28;20269;-72
2023/06/23 02:22:11;;;;;;;5.30;4.20;;;;;;;17.40;100.00;101489.13;5052891;28;20200;-72
2023/06/23 02:24:39;;;;;;;5.60;4.60;;;;;;;17.40;100.00;101504.66;5053527;28;20690;-72
2023/06/23 02:27:06;;;;;;;6.53;4.80;;;;;;;17.32;100.00;101500.28;5032526;28;20598;-72
2023/06/23 02:29:35;;;;;;;8.23;4.97;;;;;;;17.24;100.00;101515.81;5036878;28;20194;-72
2023/06/23 02:32:01;;;;;;;7.47;5.40;;;;;;;17.25;100.00;101514.94;5051898;28;20228;-72
2023/06/23 02:34:27;;;;;;;11.40;5.73;;;;;;;17.19;100.00;101514.06;5039101;28;20245;-72
2023/06/23 02:36:58;;;;;;;6.37;5.77;;;;;;;17.14;100.00;101523.53;5040084;28;20194;-73
2023/06/23 02:39:27;;;;;;;8.30;5.93;;;;;;;17.12;100.00;101533.88;5037799;28;20198;-73
2023/06/23 02:41:57;;;;;;;9.23;6.00;;;;;;;17.13;100.00;101537.34;5037753;28;20239;-73
2023/06/23 02:44:30;;;;;;;8.33;5.47;;;;;;;17.12;100.00;101545.94;5039444;28;20197;-73
2023/06/23 02:46:59;;;;;;;6.07;5.47;;;;;;;17.09;100.00;101545.94;5044718;28;20197;-73
2023/06/23 02:49:28;;;;;;;7.33;5.50;;;;;;;17.12;100.00;101554.59;5041587;28;20306;-73
2023/06/23 02:51:58;;;;;;;6.73;5.70;;;;;;;17.05;100.00;101555.44;5053208;28;20903;-73
2023/06/23 02:54:25;;;;;;;6.50;5.83;;;;;;;17.01;100.00;101551.09;5038128;28;20218;-73
2023/06/23 02:56:53;;;;;;;6.73;5.20;;;;;;;17.05;100.00;101554.56;5038088;28;20241;-73
2023/06/23 02:59:21;;;;;;;7.07;5.60;;;;;;;17.05;100.00;101564.91;5038081;28;20570;-73
2023/06/23 03:01:52;;;;;;;6.63;5.50;;;;;;;17.04;100.00;101570.94;5043582;28;20331;-73
2023/06/23 03:04:18;;;;;;;6.33;5.63;;;;;;;17.07;100.00;101570.94;5038423;28;20300;-74
2023/06/23 03:06:44;;;;;;;6.77;5.67;;;;;;;17.10;100.00;101570.97;5053520;28;20562;-73
2023/06/23 03:09:10;;;;;;;8.10;5.43;;;;;;;17.06;100.00;101582.16;5054481;28;20190;-73
2023/06/23 03:11:37;;;;;;;5.67;5.07;;;;;;;17.02;100.00;101581.28;5044678;28;20682;-73
2023/06/23 03:14:06;;;;;;;5.93;5.33;;;;;;;16.98;100.00;101573.47;5043659;28;20206;-72
2023/06/23 03:16:43;;;;;;;6.30;5.70;;;;;;;16.97;100.00;101570.06;5045805;28;20237;-73
2023/06/23 03:19:28;;;;;;;8.33;5.77;;;;;;;17.04;100.00;101573.53;5053220;28;20272;-73
2023/06/23 03:22:03;;;;;;;6.33;4.97;;;;;;;16.94;100.00;101567.44;5045199;28;20236;-73
2023/06/23 03:24:33;;;;;;;6.17;5.13;;;;;;;16.95;100.00;101566.56;5045499;28;20264;-73
2023/06/23 03:27:06;;;;;;;6.17;4.80;;;;;;;16.92;100.00;101557.94;5057649;28;20252;-73
2023/06/23 03:29:36;;;;;;;5.83;5.17;;;;;;;16.92;100.00;101548.47;5055107;28;20198;-73
2023/06/23 03:32:04;;;;;;;5.50;4.83;;;;;;;16.89;100.00;101558.78;5057078;28;20650;-74
2023/06/23 03:34:39;;;;;;;5.17;4.67;;;;;;;16.88;100.00;101556.19;5046002;28;20252;-72
2023/06/23 03:37:07;;;;;;;6.57;4.83;;;;;;;16.89;100.00;101569.13;5043640;28;20205;-74
2023/06/23 03:39:37;;;;;;;6.67;5.03;;;;;;;16.91;100.00;101574.31;5060263;28;20659;-73
2023/06/23 03:42:04;;;;;;;10.30;5.80;;;;;;;16.86;100.00;101576.03;5044909;28;20222;-73
2023/06/23 03:44:35;;;;;;;7.70;5.77;;;;;;;16.84;100.00;101591.53;5052458;28;20546;-73
2023/06/23 03:47:06;;;;;;;6.73;4.83;;;;;;;16.90;100.00;101601.06;5041008;28;20884;-72
2023/06/23 03:49:37;;;;;;;5.37;4.87;;;;;;;16.93;100.00;101606.22;5043626;28;20286;-73
2023/06/23 03:52:05;;;;;;;5.87;5.20;;;;;;;16.94;100.00;101616.59;5042300;28;20182;-73
2023/06/23 03:54:32;;;;;;;6.07;5.33;;;;;;;16.96;100.00;101620.09;5048747;28;20225;-73
2023/06/23 03:57:02;;;;;;;7.57;5.43;;;;;;;16.97;100.00;101619.22;5053424;28;20668;-72
2023/06/23 03:59:28;;;;;;;5.57;5.07;;;;;;;16.99;100.00;101611.47;5049405;28;20229;-74
2023/06/23 04:01:56;;;;;;;8.50;5.73;;;;;;;16.98;100.00;101612.28;5046944;28;20512;-73
2023/06/23 04:04:23;;;;;;;6.23;5.63;;;;;;;16.99;100.00;101612.31;5042218;28;20273;-73
2023/06/23 04:06:50;;;;;;;6.53;5.37;;;;;;;17.00;100.00;101616.63;5043636;28;20666;-73
2023/06/23 04:09:19;;;;;;;6.67;6.00;;;;;;;17.03;100.00;101611.47;5045915;28;20201;-73
2023/06/23 04:11:48;;;;;;;6.87;6.13;;;;;;;16.98;100.00;101610.59;5044746;28;20189;-73
2023/06/23 04:14:15;;;;;;;6.23;5.63;;;;;;;17.03;100.00;101590.78;5046608;28;20753;-73
2023/06/23 04:16:41;;;;;;;6.13;5.53;;;;;;;17.03;100.00;101595.94;5045632;28;20270;-73
2023/06/23 04:19:10;;;;;;;7.97;5.97;;;;;;;17.07;100.00;101596.81;5044794;28;20201;-73
2023/06/23 04:21:37;;;;;;;7.47;5.90;;;;;;;17.07;100.00;101607.16;5043713;28;20244;-75
2023/06/23 04:24:04;;;;;;;6.37;5.77;;;;;;;17.06;100.00;101610.63;5043080;28;20199;-73
2023/06/23 04:26:33;;;;;;;8.43;6.30;;;;;;;17.07;100.00;101621.00;5042697;28;20214;-73
2023/06/23 04:29:02;;;;;;;6.97;6.27;;;;;;;17.05;100.00;101620.13;5050240;28;20196;-73
2023/06/23 04:31:29;;;;;;;6.97;6.27;;;;;;;17.10;100.00;101626.19;5048197;28;20197;-73
2023/06/23 04:33:54;;;;;;;6.57;5.97;;;;;;;17.09;100.00;101623.59;5044213;28;20282;-72
2023/06/23 04:36:23;;;;;;;10.20;6.90;;;;;;;17.11;100.00;101624.44;5038640;28;20231;-73
2023/06/23 04:39:06;;;;;;;8.40;6.90;;;;;;;17.14;100.00;101633.09;5046555;28;20682;-74
2023/06/23 04:41:38;;;;;;;8.63;6.80;;;;;;;17.16;100.00;101625.34;5037677;28;20667;-73
2023/06/23 04:44:08;;;;;;;7.80;7.00;;;;;;;17.14;100.00;101627.91;5059291;28;20195;-73
2023/06/23 04:46:38;;;;;;;9.03;6.97;;;;;;;17.16;100.00;101633.97;5049201;28;20225;-73
2023/06/23 04:49:08;;;;;;;7.87;7.03;;;;;;;17.22;100.00;101634.00;5042814;28;20193;-73
2023/06/23 04:51:39;;;;;;;7.90;7.10;;;;;;;17.26;100.00;101635.75;5044016;28;20589;-73
2023/06/23 04:54:10;;;;;;;7.97;7.17;;;;;;;17.26;100.00;101624.53;5046005;28;20676;-74
2023/06/23 04:56:38;;;;;;;7.73;6.47;;;;;;;17.27;100.00;101627.13;5047132;28;20304;-73
2023/06/23 04:59:06;;;;;;;9.93;7.33;;;;;;;17.31;100.00;101631.47;5045936;28;20335;-73
2023/06/23 05:01:33;;;;;;;9.63;6.30;;;;;;;17.34;100.00;101633.19;5047433;28;20554;-73
2023/06/23 05:04:02;;;;;;;7.73;6.93;;;;;;;17.33;100.00;101636.66;5043148;28;20280;-73
2023/06/23 05:06:28;;;;;;;8.03;5.93;;;;;;;17.36;100.00;101637.53;5042873;28;20264;-73
2023/06/23 05:08:56;;;;;;;8.20;6.70;;;;;;;17.38;100.00;101645.31;5047004;28;20197;-73
2023/06/23 05:11:23;;;;;;;7.97;6.13;;;;;;;17.38;100.00;101647.91;5044878;28;20197;-73
2023/06/23 05:13:51;;;;;;;6.67;5.83;;;;;;;17.38;100.00;101642.72;5063825;28;20251;-72
2023/06/23 05:16:17;;;;;;;6.43;5.83;;;;;;;17.38;100.00;101653.06;5045901;28;20217;-74
2023/06/23 05:18:45;;;;;;;9.03;5.97;;;;;;;17.39;100.00;101647.03;5044090;28;20197;-73
2023/06/23 05:21:14;;;;;;;6.67;5.97;;;;;;;17.42;100.00;101660.91;5051816;28;20229;-73
2023/06/23 05:23:42;;;;;;;7.43;5.90;;;;;;;17.43;100.00;101664.34;5045418;28;20276;-73
2023/06/23 05:26:12;;;;;;;8.03;5.87;;;;;;;17.44;100.00;101674.72;5041635;28;20214;-73
2023/06/23 05:28:39;;;;;;;6.03;5.43;;;;;;;17.46;100.00;101675.59;5051592;28;20197;-73
2023/06/23 05:31:07;;;;;;;6.90;6.00;;;;;;;17.49;100.00;101682.50;5051126;28;20188;-74
2023/06/23 05:33:36;;;;;;;6.87;5.73;;;;;;;17.49;100.00;101680.78;5044336;28;20213;-73
2023/06/23 05:36:04;;;;;;;7.20;5.37;;;;;;;17.53;100.00;101681.66;5037581;28;20614;-73
2023/06/23 05:38:30;;;;;;;8.40;5.50;;;;;;;17.57;100.00;101681.69;5041596;28;20281;-73
2023/06/23 05:40:56;;;;;;;7.70;5.77;;;;;;;17.59;100.00;101684.31;5046042;28;20289;-73
2023/06/23 05:43:22;;;;;;;5.60;5.10;;;;;;;17.60;100.00;101683.44;5047474;28;20867;-73
2023/06/23 05:45:49;;;;;;;5.37;4.77;;;;;;;17.59;100.00;101681.72;5060444;28;20341;-73
2023/06/23 05:48:27;;;;;;;6.13;5.30;;;;;;;17.63;100.00;101680.84;5042494;28;20290;-73
2023/06/23 05:50:55;;;;;;;6.60;5.47;;;;;;;17.70;100.00;101674.84;5037684;28;20194;-73
2023/06/23 05:53:24;;;;;;;6.60;4.93;;;;;;;17.71;100.00;101677.44;5039478;28;20214;-72
2023/06/23 05:56:14;;;;;;;6.77;5.20;;;;;;;17.76;100.00;101673.13;5044548;28;20205;-72
2023/06/23 05:58:44;;;;;;;5.83;5.23;;;;;;;17.72;100.00;101675.69;5046053;28;20588;-73
2023/06/23 06:01:14;;;;;;;6.90;5.00;;;;;;;17.76;100.00;101673.13;5044093;28;20567;-73
2023/06/23 06:03:46;;;;;;;5.97;4.70;;;;;;;17.64;100.00;101682.59;5044374;28;20200;-71
2023/06/23 06:06:13;;;;;;;6.63;5.30;;;;;;;17.69;100.00;101680.88;5045138;28;20220;-72
2023/06/23 06:08:40;;;;;;;6.40;4.93;;;;;;;17.75;100.00;101676.59;5042959;28;20705;-71
2023/06/23 06:11:09;;;;;;;4.77;4.23;;;;;;;17.69;100.00;101684.31;5049027;28;20189;-71
2023/06/23 06:13:38;;;;;;;5.23;4.73;;;;;;;17.73;100.00;101686.06;5054122;28;20209;-72
2023/06/23 06:16:06;;;;;;;5.30;4.37;;;;;;;17.79;100.00;101691.28;5044723;28;20295;-71
2023/06/23 06:18:34;;;;;;;5.50;4.67;;;;;;;17.83;100.00;101694.75;5033622;28;20197;-72
2023/06/23 06:21:01;;;;;;;9.57;5.10;;;;;;;17.83;100.00;101686.97;5041170;28;20209;-74
2023/06/23 06:23:30;;;;;;;6.23;4.33;;;;;;;17.86;100.00;101692.16;5042864;28;20186;-72
2023/06/23 06:25:57;;;;;;;5.77;5.10;;;;;;;17.83;100.00;101693.00;5049830;28;20217;-72
2023/06/23 06:28:26;;;;;;;7.83;4.60;;;;;;;17.83;100.00;101693.00;5049810;28;20190;-73
2023/06/23 06:30:54;;;;;;;7.10;4.33;;;;;;;17.85;100.00;101690.44;5047064;28;20195;-73
2023/06/23 06:33:21;;;;;;;6.73;4.63;;;;;;;17.88;100.00;101703.41;5042874;28;20225;-73
2023/06/23 06:35:49;;;;;;;5.00;4.23;;;;;;;17.86;100.00;101706.00;5042084;28;20274;-73
2023/06/23 06:38:16;;;;;;;5.60;4.40;;;;;;;17.87;100.00;101707.72;5039681;28;20194;-73
2023/06/23 06:40:43;;;;;;;5.33;4.63;;;;;;;17.90;100.00;101705.16;5049634;28;20209;-73
2023/06/23 06:43:09;;;;;;;7.47;4.60;;;;;;;17.98;100.00;101707.75;5053967;28;20190;-73
2023/06/23 06:45:34;;;;;;;7.83;4.67;;;;;;;18.05;100.00;101717.31;5051277;28;20221;-73
2023/06/23 06:48:03;;;;;;;7.13;5.20;;;;;;;18.02;100.00;101707.78;5048155;28;20197;-73
2023/06/23 06:50:30;;;;;;;6.13;4.83;;;;;;;18.09;100.00;101717.31;5043763;28;20213;-73
2023/06/23 06:52:56;;;;;;;5.90;4.80;;;;;;;18.12;100.00;101721.63;5044448;28;20672;-73
2023/06/23 06:55:22;;;;;;;6.47;4.70;;;;;;;18.20;100.00;101722.53;5054896;28;20754;-73
2023/06/23 06:57:48;;;;;;;7.87;4.67;;;;;;;18.22;100.00;101720.78;5055493;28;20188;-74
2023/06/23 07:00:18;;;;;;;5.77;4.50;;;;;;;18.27;100.00;101729.44;5061620;28;20563;-73
2023/06/23 07:02:45;;;;;;;4.73;4.17;;;;;;;18.30;100.00;101730.34;5051546;28;20522;-73
2023/06/23 07:05:11;;;;;;;6.07;4.57;;;;;;;18.32;100.00;101726.00;5046298;28;20272;-73
2023/06/23 07:07:36;;;;;;;5.43;4.43;;;;;;;18.40;100.00;101726.03;5043285;28;20671;-73
2023/06/23 07:10:03;;;;;;;4.83;4.33;;;;;;;18.39;100.00;101732.09;5053450;28;20225;-73
2023/06/23 07:12:28;;;;;;;6.47;4.53;;;;;;;18.45;100.00;101732.97;5055507;28;20693;-73
2023/06/23 07:14:54;;;;;;;5.97;4.40;;;;;;;18.51;100.00;101734.72;5046978;28;20218;-71
2023/06/23 07:17:19;;;;;;;6.10;4.43;;;;;;;18.53;100.00;101738.19;5045139;28;20206;-72
2023/06/23 07:19:45;;;;;;;6.13;4.43;;;;;;;18.52;100.00;101734.69;5047995;28;20200;-71
2023/06/23 07:22:10;;;;;;;6.37;4.67;;;;;;;18.59;100.00;101735.56;5041534;28;20194;-72
2023/06/23 07:24:36;;;;;;;9.63;4.83;;;;;;;18.64;100.00;101728.66;5042527;28;20195;-72
2023/06/23 07:27:01;;;;;;;5.80;4.67;;;;;;;18.64;100.00;101734.72;5055347;28;20247;-71
2023/06/23 07:29:27;;;;;;;6.00;4.70;;;;;;;18.67;100.00;101728.69;5052432;28;20218;-72
2023/06/23 07:31:52;;;;;;;6.73;4.60;;;;;;;18.73;100.00;101728.66;5050565;28;20190;-72
2023/06/23 07:34:18;;;;;;;6.43;4.57;;;;;;;18.77;100.00;101740.78;5047802;28;20210;-72
2023/06/23 07:36:43;;;;;;;7.90;4.30;;;;;;;18.83;100.00;101726.09;5041182;28;20205;-73
2023/06/23 07:39:10;;;;;;;6.17;4.90;;;;;;;18.91;100.00;101728.66;5048963;28;20688;-74
2023/06/23 07:41:35;;;;;;;7.67;4.47;;;;;;;18.90;100.00;101716.56;5055674;28;20206;-73
2023/06/23 07:44:01;;;;;;;7.27;4.37;;;;;;;18.97;100.00;101726.09;5053225;28;20193;-73
2023/06/23 07:46:27;;;;;;;4.90;3.90;;;;;;;18.98;100.00;101726.06;5049599;28;20953;-73
2023/06/23 07:48:52;;;;;;;5.37;4.47;;;;;;;18.90;100.00;101726.94;5047775;28;20277;-73
2023/06/23 07:51:18;;;;;;;7.37;4.20;;;;;;;18.99;100.00;101730.41;5042284;28;20190;-73
2023/06/23 07:53:43;;;;;;;5.70;5.20;;;;;;;19.05;100.00;101732.13;5050356;28;20290;-72
2023/06/23 07:56:12;;;;;;;6.57;5.00;;;;;;;19.02;100.00;101739.94;5047394;28;20855;-72
2023/06/23 07:58:38;;;;;;;6.90;4.90;;;;;;;19.06;100.00;101747.72;5059992;28;20729;-72
2023/06/23 08:01:03;;;;;;;6.83;5.03;;;;;;;19.10;100.00;101753.75;5050319;28;20277;-72
2023/06/23 08:03:29;;;;;;;6.40;5.17;;;;;;;19.10;100.00;101754.63;5045839;28;20990;-72
2023/06/23 08:05:54;;;;;;;7.87;5.30;;;;;;;19.15;100.00;101754.63;5039808;28;20218;-72
2023/06/23 08:08:20;;;;;;;6.53;5.73;;;;;;;19.17;100.00;101758.94;5034585;28;20323;-72
2023/06/23 08:10:45;;;;;;;7.03;5.87;;;;;;;19.16;100.00;101764.16;5059491;28;20192;-72
2023/06/23 08:13:10;;;;;;;8.77;6.17;;;;;;;19.17;100.00;101764.13;5052993;28;20232;-73
2023/06/23 08:15:36;;;;;;;7.00;6.27;;;;;;;19.17;100.00;101777.13;5049915;28;20210;-72
2023/06/23 08:18:01;;;;;;;9.30;6.57;;;;;;;19.19;100.00;101783.19;5047649;28;20927;-72
2023/06/23 08:20:28;;;;;;;12.63;8.10;;;;;;;19.25;100.00;101782.38;5044531;28;20197;-72
2023/06/23 08:22:54;;;;;;;10.03;7.53;;;;;;;19.23;100.00;101789.28;5046157;28;20194;-72
2023/06/23 08:25:19;;;;;;;10.73;7.70;;;;;;;19.24;100.00;101799.69;5053910;28;20215;-72
2023/06/23 08:27:45;;;;;;;10.83;8.47;;;;;;;19.26;100.00;101800.53;5056442;28;20228;-72
2023/06/23 08:30:11;;;;;;;11.33;8.00;;;;;;;19.24;100.00;101799.69;5051894;28;20190;-72
2023/06/23 08:32:36;;;;;;;9.27;7.53;;;;;;;19.31;100.00;101809.22;5047010;28;20202;-73
2023/06/23 08:35:02;;;;;;;10.47;8.10;;;;;;;19.32;100.00;101810.06;5042428;28;20321;-72
2023/06/23 08:37:27;;;;;;;8.43;7.30;;;;;;;19.37;100.00;101817.00;5036231;28;20202;-73
2023/06/23 08:39:53;;;;;;;9.77;7.37;;;;;;;19.44;100.00;101826.50;5056300;28;20280;-73
2023/06/23 08:42:20;;;;;;;10.77;8.43;;;;;;;19.41;100.00;101836.03;5052192;28;20197;-73
2023/06/23 08:44:48;;;;;;;9.43;7.77;;;;;;;19.45;100.00;101835.16;5044628;28;20710;-73
2023/06/23 08:47:18;;;;;;;10.43;7.00;;;;;;;19.50;100.00;101836.03;5046800;28;20181;-73
2023/06/23 08:49:45;;;;;;;9.77;7.63;;;;;;;19.51;100.00;101841.22;5044853;28;20283;-72
2023/06/23 08:52:11;;;;;;;10.43;7.33;;;;;;;19.55;100.00;101847.28;5042168;28;20209;-73
2023/06/23 08:54:37;;;;;;;9.10;7.60;;;;;;;19.54;100.00;101853.34;5050757;28;20214;-73
2023/06/23 08:57:04;;;;;;;10.03;7.23;;;;;;;19.56;100.00;101859.41;5054468;28;20225;-74
2023/06/23 08:59:30;;;;;;;8.40;7.20;;;;;;;19.62;100.00;101864.63;5063786;28;20198;-72
2023/06/23 09:01:55;;;;;;;10.40;7.30;;;;;;;19.61;100.00;101868.94;5049677;28;20201;-72
2023/06/23 09:04:21;;;;;;;9.07;7.57;;;;;;;19.62;100.00;101872.41;5044132;28;20306;-72
2023/06/23 09:06:47;;;;;;;8.60;7.33;;;;;;;19.66;100.00;101871.56;5058913;28;20259;-71
2023/06/23 09:09:12;;;;;;;9.47;6.93;;;;;;;19.67;100.00;101884.50;5044867;28;20632;-72
2023/06/23 09:11:38;;;;;;;8.40;7.33;;;;;;;19.67;100.00;101894.91;5067328;28;20201;-71
2023/06/23 09:14:06;;;;;;;10.60;7.40;;;;;;;19.67;100.00;101889.72;5052243;28;20245;-72
2023/06/23 09:16:31;;;;;;;8.57;7.43;;;;;;;19.70;100.00;101892.31;5062057;28;20210;-72
2023/06/23 09:18:59;;;;;;;9.23;8.23;;;;;;;19.71;100.00;101896.66;5046434;28;20565;-71
2023/06/23 09:21:25;;;;;;;9.27;8.30;;;;;;;19.75;100.00;101905.31;5045525;28;20197;-72
2023/06/23 09:24:02;;;;;;;7.80;7.00;;;;;;;19.78;100.00;101908.78;5046373;28;20193;-73
2023/06/23 09:26:27;;;;;;;9.23;7.70;;;;;;;19.83;100.00;101922.66;5053864;28;20213;-74
2023/06/23 09:29:13;;;;;;;9.83;7.90;;;;;;;19.77;100.00;101929.59;5053820;28;20213;-73
2023/06/23 09:31:42;;;;;;;10.30;7.47;;;;;;;19.78;100.00;101933.91;5050875;28;20203;-73
2023/06/23 09:34:08;;;;;;;10.27;8.03;;;;;;;19.81;100.00;101934.75;5058483;28;20617;-73
2023/06/23 09:36:35;;;;;;;9.77;8.27;;;;;;;19.82;100.00;101936.53;5041824;28;20217;-73
2023/06/23 09:39:01;;;;;;;11.60;9.20;;;;;;;19.90;100.00;101952.13;5055389;28;20574;-73
2023/06/23 09:41:31;;;;;;;9.77;7.77;;;;;;;19.94;100.00;101946.88;5055277;28;20220;-73
2023/06/23 09:43:57;;;;;;;9.87;8.43;;;;;;;20.06;100.00;101943.41;5053249;28;20196;-72
2023/06/23 09:46:23;;;;;;;10.93;8.40;;;;;;;20.12;100.00;101939.09;5048137;28;20225;-73
2023/06/23 09:48:49;;;;;;;10.00;7.47;;;;;;;20.20;100.00;101944.28;5047947;28;20198;-72
2023/06/23 09:51:18;;;;;;;9.47;8.47;;;;;;;20.25;100.00;101947.75;5042144;28;20613;-73
2023/06/23 09:53:44;;;;;;;9.77;8.23;;;;;;;20.36;100.00;101951.19;5047367;28;20217;-73
2023/06/23 09:56:18;;;;;;;10.57;9.20;;;;;;;20.44;100.00;101947.69;5053138;28;20217;-74
2023/06/23 09:58:45;;;;;;;12.80;9.97;;;;;;;20.57;100.00;101948.50;5048906;28;20280;-73
2023/06/23 10:01:12;;;;;;;9.87;8.83;;;;;;;20.65;100.00;101951.97;5048917;28;20194;-73
2023/06/23 10:03:45;;;;;;;9.53;8.53;;;;;;;20.78;100.00;101953.66;5047385;28;20727;-73
2023/06/23 10:06:32;;;;;;;10.73;9.63;;;;;;;20.84;100.00;101957.09;5055328;28;20214;-72
2023/06/23 10:09:05;;;;;;;12.70;9.37;;;;;;;20.90;100.00;101961.41;5041795;28;20189;-74
2023/06/23 10:11:35;;;;;;;11.13;9.73;;;;;;;20.93;100.00;101964.00;5054259;28;20243;-74
2023/06/23 10:14:10;;;;;;;10.10;8.57;;;;;;;20.93;100.00;101969.22;5051226;28;20236;-73
2023/06/23 10:16:41;;;;;;;10.63;9.53;;;;;;;21.05;100.00;101977.00;5064453;28;20597;-73
2023/06/23 10:19:07;;;;;;;12.17;9.73;;;;;;;21.21;100.00;101973.41;5043073;28;20236;-72
2023/06/23 10:21:33;;;;;;;11.57;8.90;;;;;;;21.27;100.00;101975.97;5053311;28;20671;-74
2023/06/23 10:24:04;;;;;;;10.27;8.73;;;;;;;21.21;100.00;101976.00;5050303;28;20198;-73
2023/06/23 10:26:31;;;;;;;11.90;9.73;;;;;;;21.16;100.00;101983.88;5059881;28;20243;-74
2023/06/23 10:28:58;;;;;;;12.50;10.27;;;;;;;21.12;100.00;101976.06;5053406;28;20280;-74
2023/06/23 10:31:29;;;;;;;11.73;9.30;;;;;;;21.19;100.00;101980.38;5068582;28;20194;-72
2023/06/23 10:34:00;;;;;;;13.17;10.57;;;;;;;21.20;100.00;101980.38;5049913;28;20229;-71
2023/06/23 10:36:30;;;;;;;10.90;9.70;;;;;;;21.16;100.00;101986.47;5049582;28;20224;-72
2023/06/23 10:39:00;;;;;;;10.47;9.37;;;;;;;21.16;100.00;101990.81;5049844;28;20208;-72
2023/06/23 10:41:27;;;;;;;10.17;9.03;;;;;;;21.30;100.00;101991.59;5051976;28;20190;-73
2023/06/23 10:43:56;;;;;;;12.80;9.20;;;;;;;21.35;100.00;102002.84;5057286;28;20181;-72
2023/06/23 10:46:22;;;;;;;10.10;8.87;;;;;;;21.36;100.00;101997.66;5051682;28;20224;-72
2023/06/23 10:48:49;;;;;;;9.73;8.70;;;;;;;21.35;100.00;102000.25;5052069;28;20185;-72
2023/06/23 10:51:15;;;;;;;9.83;8.83;;;;;;;21.42;100.00;102002.81;5051665;28;20205;-73
2023/06/23 10:53:59;;;;;;;10.23;9.23;;;;;;;21.53;100.00;102002.75;5050142;28;20296;-72
2023/06/23 10:56:32;;;;;;;11.73;9.20;;;;;;;21.57;100.00;102005.34;5051638;28;20248;-72
2023/06/23 10:58:58;;;;;;;10.07;8.50;;;;;;;21.67;100.00;101995.69;5056840;28;20203;-72
2023/06/23 11:01:26;;;;;;;9.80;8.73;;;;;;;21.56;100.00;102007.94;5050694;28;20554;-72
2023/06/23 11:03:53;;;;;;;8.60;7.80;;;;;;;21.59;100.00;102016.59;5051547;28;20185;-72
2023/06/23 11:06:34;;;;;;;10.10;8.20;;;;;;;21.69;100.00;102022.69;5051920;28;20308;-73
2023/06/23 11:09:01;;;;;;;9.40;8.37;;;;;;;21.64;100.00;102025.25;5044351;28;20264;-75
2023/06/23 11:11:31;;;;;;;9.37;7.87;;;;;;;21.61;100.00;102021.81;5055795;28;20209;-73
2023/06/23 11:13:56;;;;;;;8.87;7.53;;;;;;;21.57;100.00;102018.38;5056126;28;20220;-73
2023/06/23 11:16:38;;;;;;;11.23;8.17;;;;;;;21.69;100.00;102018.31;5051659;28;20212;-72
2023/06/23 11:19:04;;;;;;;9.57;8.60;;;;;;;21.61;100.00;102032.25;5042767;28;20201;-72
2023/06/23 11:21:37;;;;;;;11.67;10.43;;;;;;;21.68;100.00;102021.75;5052920;28;20197;-72
2023/06/23 11:24:13;;;;;;;9.23;8.23;;;;;;;21.71;100.00;102034.81;5046189;28;20193;-73